sensor_id;sensor_type;location;lat;lon;timestamp;temperature;humidity
4749;DHT22;2388;53.582;9.962;2022-10-16T00:00:37;14.50;99.90
4749;DHT22;2388;53.582;9.962;2022-10-16T00:03:03;14.50;99.90
4749;DHT22;2388;53.582;9.962;2022-10-16T00:05:29;14.50;99.90
4749;DHT22;2388;53.582;9.962;2022-10-16T00:07:55;14.50;99.90
4749;DHT22;2388;53.582;9.962;2022-10-16T00:10:20;14.50;99.90
4749;DHT22;2388;53.582;9.962;2022-10-16T00:12:46;14.50;99.90
4749;DHT22;2388;53.582;9.962;2022-10-16T00:15:12;14.50;99.90
4749;DHT22;2388;53.582;9.962;2022-10-16T00:17:37;14.50;99.90
4749;DHT22;2388;53.582;9.962;2022-10-16T00:20:03;14.50;99.90
4749;DHT22;2388;53.582;9.962;2022-10-16T00:22:29;14.50;99.90
4749;DHT22;2388;53.582;9.962;2022-10-16T00:24:54;14.50;99.90
4749;DHT22;2388;53.582;9.962;2022-10-16T00:27:20;14.50;99.90
4749;DHT22;2388;53.582;9.962;2022-10-16T00:29:50;14.50;99.90
4749;DHT22;2388;53.582;9.962;2022-10-16T00:32:16;14.50;99.90
4749;DHT22;2388;53.582;9.962;2022-10-16T00:34:42;14.60;99.90
4749;DHT22;2388;53.582;9.962;2022-10-16T00:37:07;14.50;99.90
4749;DHT22;2388;53.582;9.962;2022-10-16T00:39:33;14.50;99.90
4749;DHT22;2388;53.582;9.962;2022-10-16T00:41:58;14.50;99.90
4749;DHT22;2388;53.582;9.962;2022-10-16T00:47:15;14.60;99.90
4749;DHT22;2388;53.582;9.962;2022-10-16T00:49:42;14.50;99.90
4749;DHT22;2388;53.582;9.962;2022-10-16T00:52:08;14.50;99.90
4749;DHT22;2388;53.582;9.962;2022-10-16T00:54:35;14.50;99.90
4749;DHT22;2388;53.582;9.962;2022-10-16T00:57:03;14.60;99.90
4749;DHT22;2388;53.582;9.962;2022-10-16T00:59:33;14.50;99.90
4749;DHT22;2388;53.582;9.962;2022-10-16T01:01:59;14.50;99.90
4749;DHT22;2388;53.582;9.962;2022-10-16T01:04:34;14.50;99.90
4749;DHT22;2388;53.582;9.962;2022-10-16T01:07:28;14.60;99.90
4749;DHT22;2388;53.582;9.962;2022-10-16T01:10:03;14.60;99.90
4749;DHT22;2388;53.582;9.962;2022-10-16T01:12:45;14.60;99.90
4749;DHT22;2388;53.582;9.962;2022-10-16T01:18:04;14.60;99.90
4749;DHT22;2388;53.582;9.962;2022-10-16T01:20:33;14.50;99.90
4749;DHT22;2388;53.582;9.962;2022-10-16T01:28:23;14.50;99.90
4749;DHT22;2388;53.582;9.962;2022-10-16T01:30:54;14.50;99.90
4749;DHT22;2388;53.582;9.962;2022-10-16T01:33:24;14.50;99.90
4749;DHT22;2388;53.582;9.962;2022-10-16T01:35:54;14.50;99.90
4749;DHT22;2388;53.582;9.962;2022-10-16T01:38:34;14.50;99.90
4749;DHT22;2388;53.582;9.962;2022-10-16T01:41:06;14.40;99.90
4749;DHT22;2388;53.582;9.962;2022-10-16T01:44:10;14.40;99.90
4749;DHT22;2388;53.582;9.962;2022-10-16T01:46:39;14.30;99.90
4749;DHT22;2388;53.582;9.962;2022-10-16T01:49:06;14.30;99.90
4749;DHT22;2388;53.582;9.962;2022-10-16T01:51:35;14.30;99.90
4749;DHT22;2388;53.582;9.962;2022-10-16T01:54:02;14.30;99.90
4749;DHT22;2388;53.582;9.962;2022-10-16T01:56:30;14.20;99.90
4749;DHT22;2388;53.582;9.962;2022-10-16T01:59:00;14.30;99.90
4749;DHT22;2388;53.582;9.962;2022-10-16T02:01:28;14.20;99.90
4749;DHT22;2388;53.582;9.962;2022-10-16T02:03:59;14.20;99.90
4749;DHT22;2388;53.582;9.962;2022-10-16T02:06:26;14.20;99.90
4749;DHT22;2388;53.582;9.962;2022-10-16T02:08:53;14.20;99.90
4749;DHT22;2388;53.582;9.962;2022-10-16T02:11:18;14.20;99.90
4749;DHT22;2388;53.582;9.962;2022-10-16T02:13:48;14.20;99.90
4749;DHT22;2388;53.582;9.962;2022-10-16T02:16:15;14.20;99.90
4749;DHT22;2388;53.582;9.962;2022-10-16T02:18:41;14.20;99.90
4749;DHT22;2388;53.582;9.962;2022-10-16T02:21:17;14.20;99.90
4749;DHT22;2388;53.582;9.962;2022-10-16T02:23:59;14.20;99.90
4749;DHT22;2388;53.582;9.962;2022-10-16T02:26:32;14.20;99.90
4749;DHT22;2388;53.582;9.962;2022-10-16T02:29:06;14.10;99.90
4749;DHT22;2388;53.582;9.962;2022-10-16T02:31:35;14.10;99.90
4749;DHT22;2388;53.582;9.962;2022-10-16T02:34:04;14.10;99.90
4749;DHT22;2388;53.582;9.962;2022-10-16T02:36:32;14.10;99.90
4749;DHT22;2388;53.582;9.962;2022-10-16T02:38:59;14.10;99.90
4749;DHT22;2388;53.582;9.962;2022-10-16T02:41:26;14.00;99.90
4749;DHT22;2388;53.582;9.962;2022-10-16T02:43:52;14.00;99.90
4749;DHT22;2388;53.582;9.962;2022-10-16T02:46:17;14.00;99.90
4749;DHT22;2388;53.582;9.962;2022-10-16T02:48:43;14.00;99.90
4749;DHT22;2388;53.582;9.962;2022-10-16T02:51:09;14.00;99.90
4749;DHT22;2388;53.582;9.962;2022-10-16T02:53:34;14.00;99.90
4749;DHT22;2388;53.582;9.962;2022-10-16T02:55:59;14.00;99.90
4749;DHT22;2388;53.582;9.962;2022-10-16T02:58:25;13.90;99.90
4749;DHT22;2388;53.582;9.962;2022-10-16T03:00:50;14.10;99.90
4749;DHT22;2388;53.582;9.962;2022-10-16T03:03:16;13.90;99.90
4749;DHT22;2388;53.582;9.962;2022-10-16T03:05:43;13.90;99.90
4749;DHT22;2388;53.582;9.962;2022-10-16T03:08:08;13.80;99.90
4749;DHT22;2388;53.582;9.962;2022-10-16T03:10:34;13.90;99.90
4749;DHT22;2388;53.582;9.962;2022-10-16T03:12:59;13.80;99.90
4749;DHT22;2388;53.582;9.962;2022-10-16T03:15:25;13.80;99.90
4749;DHT22;2388;53.582;9.962;2022-10-16T03:17:51;13.80;99.90
4749;DHT22;2388;53.582;9.962;2022-10-16T03:20:16;13.80;99.90
4749;DHT22;2388;53.582;9.962;2022-10-16T03:22:42;13.80;99.90
4749;DHT22;2388;53.582;9.962;2022-10-16T03:25:07;13.80;99.90
4749;DHT22;2388;53.582;9.962;2022-10-16T03:27:33;13.80;99.90
4749;DHT22;2388;53.582;9.962;2022-10-16T03:29:58;13.70;99.90
4749;DHT22;2388;53.582;9.962;2022-10-16T03:32:24;13.70;99.90
4749;DHT22;2388;53.582;9.962;2022-10-16T03:34:50;13.70;99.90
4749;DHT22;2388;53.582;9.962;2022-10-16T03:37:15;13.70;99.90
4749;DHT22;2388;53.582;9.962;2022-10-16T03:39:41;13.70;99.90
4749;DHT22;2388;53.582;9.962;2022-10-16T03:42:06;13.70;99.90
4749;DHT22;2388;53.582;9.962;2022-10-16T03:44:32;13.70;99.90
4749;DHT22;2388;53.582;9.962;2022-10-16T03:46:57;13.90;99.90
4749;DHT22;2388;53.582;9.962;2022-10-16T03:49:23;13.80;99.90
4749;DHT22;2388;53.582;9.962;2022-10-16T03:51:48;13.80;99.90
4749;DHT22;2388;53.582;9.962;2022-10-16T03:54:14;13.70;99.90
4749;DHT22;2388;53.582;9.962;2022-10-16T03:56:39;13.70;99.90
4749;DHT22;2388;53.582;9.962;2022-10-16T03:59:05;13.70;99.90
4749;DHT22;2388;53.582;9.962;2022-10-16T04:01:30;13.70;99.90
4749;DHT22;2388;53.582;9.962;2022-10-16T04:03:56;13.70;99.90
4749;DHT22;2388;53.582;9.962;2022-10-16T04:06:21;13.70;99.90
4749;DHT22;2388;53.582;9.962;2022-10-16T04:08:47;13.70;99.90
4749;DHT22;2388;53.582;9.962;2022-10-16T04:11:12;13.70;99.90
4749;DHT22;2388;53.582;9.962;2022-10-16T04:13:38;13.70;99.90
4749;DHT22;2388;53.582;9.962;2022-10-16T04:16:03;13.70;99.90
4749;DHT22;2388;53.582;9.962;2022-10-16T04:18:29;13.70;99.90
4749;DHT22;2388;53.582;9.962;2022-10-16T04:20:54;13.70;99.90
4749;DHT22;2388;53.582;9.962;2022-10-16T04:23:20;13.70;99.90
4749;DHT22;2388;53.582;9.962;2022-10-16T04:25:45;13.70;99.90
4749;DHT22;2388;53.582;9.962;2022-10-16T04:28:11;13.60;99.90
4749;DHT22;2388;53.582;9.962;2022-10-16T04:30:38;13.60;99.90
4749;DHT22;2388;53.582;9.962;2022-10-16T04:33:04;13.60;99.90
4749;DHT22;2388;53.582;9.962;2022-10-16T04:35:29;13.60;99.90
4749;DHT22;2388;53.582;9.962;2022-10-16T04:37:57;13.60;99.90
4749;DHT22;2388;53.582;9.962;2022-10-16T04:40:23;13.70;99.90
4749;DHT22;2388;53.582;9.962;2022-10-16T04:42:48;13.60;99.90
4749;DHT22;2388;53.582;9.962;2022-10-16T04:45:14;13.70;99.90
4749;DHT22;2388;53.582;9.962;2022-10-16T04:47:40;13.70;99.90
4749;DHT22;2388;53.582;9.962;2022-10-16T04:50:05;13.70;99.90
4749;DHT22;2388;53.582;9.962;2022-10-16T04:52:31;13.60;99.90
4749;DHT22;2388;53.582;9.962;2022-10-16T04:54:57;13.60;99.90
4749;DHT22;2388;53.582;9.962;2022-10-16T04:57:26;13.70;99.90
4749;DHT22;2388;53.582;9.962;2022-10-16T04:59:52;13.60;99.90
4749;DHT22;2388;53.582;9.962;2022-10-16T05:02:17;13.70;99.90
4749;DHT22;2388;53.582;9.962;2022-10-16T05:04:43;13.70;99.90
4749;DHT22;2388;53.582;9.962;2022-10-16T05:07:08;13.70;99.90
4749;DHT22;2388;53.582;9.962;2022-10-16T05:09:34;13.60;99.90
4749;DHT22;2388;53.582;9.962;2022-10-16T05:11:59;13.60;99.90
4749;DHT22;2388;53.582;9.962;2022-10-16T05:14:25;13.60;99.90
4749;DHT22;2388;53.582;9.962;2022-10-16T05:16:50;13.60;99.90
4749;DHT22;2388;53.582;9.962;2022-10-16T05:19:17;13.60;99.90
4749;DHT22;2388;53.582;9.962;2022-10-16T05:21:42;13.60;99.90
4749;DHT22;2388;53.582;9.962;2022-10-16T05:24:08;13.60;99.90
4749;DHT22;2388;53.582;9.962;2022-10-16T05:26:34;13.60;99.90
4749;DHT22;2388;53.582;9.962;2022-10-16T05:29:00;13.60;99.90
4749;DHT22;2388;53.582;9.962;2022-10-16T05:31:26;13.60;99.90
4749;DHT22;2388;53.582;9.962;2022-10-16T05:33:51;13.60;99.90
4749;DHT22;2388;53.582;9.962;2022-10-16T05:36:17;13.60;99.90
4749;DHT22;2388;53.582;9.962;2022-10-16T05:38:43;13.60;99.90
4749;DHT22;2388;53.582;9.962;2022-10-16T05:41:09;13.60;99.90
4749;DHT22;2388;53.582;9.962;2022-10-16T05:43:35;13.60;99.90
4749;DHT22;2388;53.582;9.962;2022-10-16T05:46:02;13.70;99.90
4749;DHT22;2388;53.582;9.962;2022-10-16T05:48:28;13.60;99.90
4749;DHT22;2388;53.582;9.962;2022-10-16T05:50:58;13.60;99.90
4749;DHT22;2388;53.582;9.962;2022-10-16T05:53:24;13.60;99.90
4749;DHT22;2388;53.582;9.962;2022-10-16T05:55:54;13.70;99.90
4749;DHT22;2388;53.582;9.962;2022-10-16T05:58:21;13.70;99.90
4749;DHT22;2388;53.582;9.962;2022-10-16T06:00:54;13.70;99.90
4749;DHT22;2388;53.582;9.962;2022-10-16T06:03:21;13.80;99.90
4749;DHT22;2388;53.582;9.962;2022-10-16T06:05:47;13.80;99.90
4749;DHT22;2388;53.582;9.962;2022-10-16T06:08:12;13.80;99.90
4749;DHT22;2388;53.582;9.962;2022-10-16T06:10:38;13.90;99.90
4749;DHT22;2388;53.582;9.962;2022-10-16T06:13:03;13.80;99.90
4749;DHT22;2388;53.582;9.962;2022-10-16T06:15:29;13.90;99.90
4749;DHT22;2388;53.582;9.962;2022-10-16T06:17:54;13.90;99.90
4749;DHT22;2388;53.582;9.962;2022-10-16T06:20:20;13.90;99.90
4749;DHT22;2388;53.582;9.962;2022-10-16T06:22:45;13.90;99.90
4749;DHT22;2388;53.582;9.962;2022-10-16T06:25:20;13.90;99.90
4749;DHT22;2388;53.582;9.962;2022-10-16T06:27:45;13.90;99.90
4749;DHT22;2388;53.582;9.962;2022-10-16T06:30:11;13.90;99.90
4749;DHT22;2388;53.582;9.962;2022-10-16T06:32:36;13.90;99.90
4749;DHT22;2388;53.582;9.962;2022-10-16T06:35:02;13.90;99.90
4749;DHT22;2388;53.582;9.962;2022-10-16T06:37:27;13.90;99.90
4749;DHT22;2388;53.582;9.962;2022-10-16T06:39:53;13.90;99.90
4749;DHT22;2388;53.582;9.962;2022-10-16T06:42:19;13.90;99.90
4749;DHT22;2388;53.582;9.962;2022-10-16T06:44:45;13.90;99.90
4749;DHT22;2388;53.582;9.962;2022-10-16T06:47:10;13.90;99.90
4749;DHT22;2388;53.582;9.962;2022-10-16T06:49:36;14.00;99.90
4749;DHT22;2388;53.582;9.962;2022-10-16T06:52:02;13.90;99.90
4749;DHT22;2388;53.582;9.962;2022-10-16T06:54:28;14.00;99.90
4749;DHT22;2388;53.582;9.962;2022-10-16T06:56:54;14.00;99.90
4749;DHT22;2388;53.582;9.962;2022-10-16T06:59:20;14.00;99.90
4749;DHT22;2388;53.582;9.962;2022-10-16T07:01:46;14.00;99.90
4749;DHT22;2388;53.582;9.962;2022-10-16T07:04:12;14.10;99.90
4749;DHT22;2388;53.582;9.962;2022-10-16T07:06:37;14.10;99.90
4749;DHT22;2388;53.582;9.962;2022-10-16T07:09:06;14.10;99.90
4749;DHT22;2388;53.582;9.962;2022-10-16T07:11:32;14.20;99.90
4749;DHT22;2388;53.582;9.962;2022-10-16T07:13:58;14.30;99.90
4749;DHT22;2388;53.582;9.962;2022-10-16T07:16:26;14.30;99.90
4749;DHT22;2388;53.582;9.962;2022-10-16T07:18:54;14.50;99.90
4749;DHT22;2388;53.582;9.962;2022-10-16T07:21:23;14.60;99.90
4749;DHT22;2388;53.582;9.962;2022-10-16T07:23:52;14.70;99.90
4749;DHT22;2388;53.582;9.962;2022-10-16T07:26:18;14.60;99.90
4749;DHT22;2388;53.582;9.962;2022-10-16T07:28:44;14.60;99.90
4749;DHT22;2388;53.582;9.962;2022-10-16T07:31:11;14.60;99.90
4749;DHT22;2388;53.582;9.962;2022-10-16T07:33:39;14.50;99.90
4749;DHT22;2388;53.582;9.962;2022-10-16T07:36:05;14.50;99.90
4749;DHT22;2388;53.582;9.962;2022-10-16T07:38:31;14.50;99.90
4749;DHT22;2388;53.582;9.962;2022-10-16T07:41:02;14.50;99.90
4749;DHT22;2388;53.582;9.962;2022-10-16T07:43:28;14.50;99.90
4749;DHT22;2388;53.582;9.962;2022-10-16T07:45:54;14.50;99.90
4749;DHT22;2388;53.582;9.962;2022-10-16T07:48:21;14.60;99.90
4749;DHT22;2388;53.582;9.962;2022-10-16T07:50:46;14.60;99.90
4749;DHT22;2388;53.582;9.962;2022-10-16T07:53:12;14.70;99.90
4749;DHT22;2388;53.582;9.962;2022-10-16T07:55:38;14.70;99.90
4749;DHT22;2388;53.582;9.962;2022-10-16T07:58:04;14.70;99.90
4749;DHT22;2388;53.582;9.962;2022-10-16T08:00:30;14.70;99.90
4749;DHT22;2388;53.582;9.962;2022-10-16T08:02:57;14.70;99.90
4749;DHT22;2388;53.582;9.962;2022-10-16T08:05:28;14.70;99.90
4749;DHT22;2388;53.582;9.962;2022-10-16T08:07:54;14.70;99.90
4749;DHT22;2388;53.582;9.962;2022-10-16T08:10:22;14.70;99.90
4749;DHT22;2388;53.582;9.962;2022-10-16T08:12:48;14.70;99.90
4749;DHT22;2388;53.582;9.962;2022-10-16T08:15:13;14.60;99.90
4749;DHT22;2388;53.582;9.962;2022-10-16T08:17:39;14.60;99.90
4749;DHT22;2388;53.582;9.962;2022-10-16T08:20:05;14.60;99.90
4749;DHT22;2388;53.582;9.962;2022-10-16T08:22:30;14.60;99.90
4749;DHT22;2388;53.582;9.962;2022-10-16T08:24:56;14.60;99.90
4749;DHT22;2388;53.582;9.962;2022-10-16T08:27:21;14.60;99.90
4749;DHT22;2388;53.582;9.962;2022-10-16T08:29:48;14.70;99.90
4749;DHT22;2388;53.582;9.962;2022-10-16T08:32:14;14.70;99.90
4749;DHT22;2388;53.582;9.962;2022-10-16T08:34:40;14.80;99.90
4749;DHT22;2388;53.582;9.962;2022-10-16T08:37:05;14.80;99.90
4749;DHT22;2388;53.582;9.962;2022-10-16T08:39:33;14.90;99.90
4749;DHT22;2388;53.582;9.962;2022-10-16T08:47:35;15.10;99.90
4749;DHT22;2388;53.582;9.962;2022-10-16T08:50:27;15.10;99.90
4749;DHT22;2388;53.582;9.962;2022-10-16T08:52:53;15.20;99.90
4749;DHT22;2388;53.582;9.962;2022-10-16T08:55:45;15.20;99.90
4749;DHT22;2388;53.582;9.962;2022-10-16T08:58:13;15.20;99.90
4749;DHT22;2388;53.582;9.962;2022-10-16T09:00:40;15.20;99.90
4749;DHT22;2388;53.582;9.962;2022-10-16T09:03:27;15.30;99.90
4749;DHT22;2388;53.582;9.962;2022-10-16T09:19:57;15.60;99.90
4749;DHT22;2388;53.582;9.962;2022-10-16T09:22:27;15.60;99.90
4749;DHT22;2388;53.582;9.962;2022-10-16T09:24:55;15.70;99.90
4749;DHT22;2388;53.582;9.962;2022-10-16T09:27:23;15.80;99.90
4749;DHT22;2388;53.582;9.962;2022-10-16T09:29:49;15.90;99.90
4749;DHT22;2388;53.582;9.962;2022-10-16T09:32:17;15.90;99.90
4749;DHT22;2388;53.582;9.962;2022-10-16T09:34:49;16.00;99.90
4749;DHT22;2388;53.582;9.962;2022-10-16T09:37:19;16.10;99.90
4749;DHT22;2388;53.582;9.962;2022-10-16T09:39:47;16.10;99.90
4749;DHT22;2388;53.582;9.962;2022-10-16T09:42:21;16.10;99.90
4749;DHT22;2388;53.582;9.962;2022-10-16T09:44:49;16.20;99.90
4749;DHT22;2388;53.582;9.962;2022-10-16T09:47:21;16.20;99.90
4749;DHT22;2388;53.582;9.962;2022-10-16T09:49:57;16.20;99.90
4749;DHT22;2388;53.582;9.962;2022-10-16T09:52:25;16.30;99.90
4749;DHT22;2388;53.582;9.962;2022-10-16T09:54:52;16.30;99.90
4749;DHT22;2388;53.582;9.962;2022-10-16T09:57:19;16.30;99.90
4749;DHT22;2388;53.582;9.962;2022-10-16T09:59:52;16.40;99.90
4749;DHT22;2388;53.582;9.962;2022-10-16T10:02:30;16.40;99.90
4749;DHT22;2388;53.582;9.962;2022-10-16T10:04:57;16.40;99.90
4749;DHT22;2388;53.582;9.962;2022-10-16T10:07:28;16.40;99.90
4749;DHT22;2388;53.582;9.962;2022-10-16T10:09:57;16.50;99.90
4749;DHT22;2388;53.582;9.962;2022-10-16T10:12:28;16.40;99.90
4749;DHT22;2388;53.582;9.962;2022-10-16T10:14:58;16.50;99.90
4749;DHT22;2388;53.582;9.962;2022-10-16T10:17:29;16.50;99.90
4749;DHT22;2388;53.582;9.962;2022-10-16T10:22:49;16.50;99.90
4749;DHT22;2388;53.582;9.962;2022-10-16T10:28:15;16.60;99.90
4749;DHT22;2388;53.582;9.962;2022-10-16T10:33:31;16.70;99.90
4749;DHT22;2388;53.582;9.962;2022-10-16T10:38:50;16.80;99.90
4749;DHT22;2388;53.582;9.962;2022-10-16T10:42:01;16.90;99.90
4749;DHT22;2388;53.582;9.962;2022-10-16T10:44:55;17.10;99.90
4749;DHT22;2388;53.582;9.962;2022-10-16T10:47:48;17.10;99.90
4749;DHT22;2388;53.582;9.962;2022-10-16T10:50:34;17.10;99.90
4749;DHT22;2388;53.582;9.962;2022-10-16T10:53:30;17.20;99.90
4749;DHT22;2388;53.582;9.962;2022-10-16T11:01:48;18.20;99.90
4749;DHT22;2388;53.582;9.962;2022-10-16T11:04:45;18.30;99.90
4749;DHT22;2388;53.582;9.962;2022-10-16T11:07:25;18.30;99.90
4749;DHT22;2388;53.582;9.962;2022-10-16T11:10:26;18.20;99.90
4749;DHT22;2388;53.582;9.962;2022-10-16T11:13:00;18.00;99.90
4749;DHT22;2388;53.582;9.962;2022-10-16T11:15:33;17.80;99.90
4749;DHT22;2388;53.582;9.962;2022-10-16T11:18:21;17.70;99.90
4749;DHT22;2388;53.582;9.962;2022-10-16T11:20:54;17.80;99.90
4749;DHT22;2388;53.582;9.962;2022-10-16T11:23:30;17.80;99.90
4749;DHT22;2388;53.582;9.962;2022-10-16T11:26:00;17.80;99.90
4749;DHT22;2388;53.582;9.962;2022-10-16T11:28:32;17.80;99.90
4749;DHT22;2388;53.582;9.962;2022-10-16T11:33:39;17.80;99.90
4749;DHT22;2388;53.582;9.962;2022-10-16T11:41:56;17.70;99.90
4749;DHT22;2388;53.582;9.962;2022-10-16T11:47:36;17.60;99.90
4749;DHT22;2388;53.582;9.962;2022-10-16T11:55:49;17.50;99.90
4749;DHT22;2388;53.582;9.962;2022-10-16T11:58:47;17.50;99.90
4749;DHT22;2388;53.582;9.962;2022-10-16T12:01:24;17.50;99.90
4749;DHT22;2388;53.582;9.962;2022-10-16T12:06:42;17.90;99.90
4749;DHT22;2388;53.582;9.962;2022-10-16T12:09:17;18.10;99.90
4749;DHT22;2388;53.582;9.962;2022-10-16T12:11:45;18.00;99.90
4749;DHT22;2388;53.582;9.962;2022-10-16T12:16:53;18.10;99.90
4749;DHT22;2388;53.582;9.962;2022-10-16T12:19:20;18.30;99.90
4749;DHT22;2388;53.582;9.962;2022-10-16T12:21:46;18.50;99.90
4749;DHT22;2388;53.582;9.962;2022-10-16T12:24:42;18.60;99.60
4749;DHT22;2388;53.582;9.962;2022-10-16T12:27:43;18.60;99.60
4749;DHT22;2388;53.582;9.962;2022-10-16T12:30:22;18.80;98.80
4749;DHT22;2388;53.582;9.962;2022-10-16T12:32:54;18.70;98.60
4749;DHT22;2388;53.582;9.962;2022-10-16T12:35:26;18.60;98.60
4749;DHT22;2388;53.582;9.962;2022-10-16T12:37:52;18.70;99.10
4749;DHT22;2388;53.582;9.962;2022-10-16T12:40:26;18.70;98.00
4749;DHT22;2388;53.582;9.962;2022-10-16T12:42:52;18.80;99.20
4749;DHT22;2388;53.582;9.962;2022-10-16T12:45:32;18.80;99.30
4749;DHT22;2388;53.582;9.962;2022-10-16T12:48:01;18.80;98.50
4749;DHT22;2388;53.582;9.962;2022-10-16T12:50:36;18.80;97.90
4749;DHT22;2388;53.582;9.962;2022-10-16T12:53:04;18.80;96.80
4749;DHT22;2388;53.582;9.962;2022-10-16T12:58:33;18.60;98.30
4749;DHT22;2388;53.582;9.962;2022-10-16T13:04:18;18.50;97.80
4749;DHT22;2388;53.582;9.962;2022-10-16T13:06:53;18.50;98.10
4749;DHT22;2388;53.582;9.962;2022-10-16T13:09:40;18.50;97.40
4749;DHT22;2388;53.582;9.962;2022-10-16T13:12:25;18.40;96.80
4749;DHT22;2388;53.582;9.962;2022-10-16T13:15:33;18.40;96.80
4749;DHT22;2388;53.582;9.962;2022-10-16T13:18:19;18.40;97.90
4749;DHT22;2388;53.582;9.962;2022-10-16T13:26:37;18.30;97.20
4749;DHT22;2388;53.582;9.962;2022-10-16T13:29:04;18.30;97.80
4749;DHT22;2388;53.582;9.962;2022-10-16T13:31:31;18.20;97.40
4749;DHT22;2388;53.582;9.962;2022-10-16T13:33:58;18.20;97.60
4749;DHT22;2388;53.582;9.962;2022-10-16T13:36:46;18.20;98.20
4749;DHT22;2388;53.582;9.962;2022-10-16T13:41:37;18.00;98.90
4749;DHT22;2388;53.582;9.962;2022-10-16T13:44:03;17.90;99.30
4749;DHT22;2388;53.582;9.962;2022-10-16T13:46:29;17.80;99.60
4749;DHT22;2388;53.582;9.962;2022-10-16T13:49:14;17.70;99.00
4749;DHT22;2388;53.582;9.962;2022-10-16T13:51:40;17.70;99.40
4749;DHT22;2388;53.582;9.962;2022-10-16T13:54:07;17.60;99.40
4749;DHT22;2388;53.582;9.962;2022-10-16T13:56:33;17.50;98.80
4749;DHT22;2388;53.582;9.962;2022-10-16T13:59:01;17.50;98.80
4749;DHT22;2388;53.582;9.962;2022-10-16T14:01:32;17.50;98.50
4749;DHT22;2388;53.582;9.962;2022-10-16T14:04:05;17.50;98.40
4749;DHT22;2388;53.582;9.962;2022-10-16T14:06:32;17.50;98.80
4749;DHT22;2388;53.582;9.962;2022-10-16T14:09:13;17.60;97.70
4749;DHT22;2388;53.582;9.962;2022-10-16T14:11:48;17.60;97.70
4749;DHT22;2388;53.582;9.962;2022-10-16T14:14:15;17.60;98.00
4749;DHT22;2388;53.582;9.962;2022-10-16T14:16:42;17.60;97.70
4749;DHT22;2388;53.582;9.962;2022-10-16T14:19:40;17.60;97.40
4749;DHT22;2388;53.582;9.962;2022-10-16T14:24:50;17.60;98.20
4749;DHT22;2388;53.582;9.962;2022-10-16T14:27:34;17.60;98.30
4749;DHT22;2388;53.582;9.962;2022-10-16T14:30:13;17.60;97.90
4749;DHT22;2388;53.582;9.962;2022-10-16T14:35:45;17.60;98.10
4749;DHT22;2388;53.582;9.962;2022-10-16T14:38:19;17.60;98.00
4749;DHT22;2388;53.582;9.962;2022-10-16T14:40:47;17.50;98.00
4749;DHT22;2388;53.582;9.962;2022-10-16T14:43:20;17.50;98.10
4749;DHT22;2388;53.582;9.962;2022-10-16T14:45:51;17.50;98.40
4749;DHT22;2388;53.582;9.962;2022-10-16T14:48:18;17.50;98.60
4749;DHT22;2388;53.582;9.962;2022-10-16T14:50:45;17.40;98.30
4749;DHT22;2388;53.582;9.962;2022-10-16T14:53:14;17.40;98.30
4749;DHT22;2388;53.582;9.962;2022-10-16T14:55:40;17.30;98.80
4749;DHT22;2388;53.582;9.962;2022-10-16T14:58:17;17.40;99.50
4749;DHT22;2388;53.582;9.962;2022-10-16T15:00:43;17.40;99.30
4749;DHT22;2388;53.582;9.962;2022-10-16T15:03:09;17.30;99.30
4749;DHT22;2388;53.582;9.962;2022-10-16T15:05:35;17.30;99.50
4749;DHT22;2388;53.582;9.962;2022-10-16T15:08:00;17.30;99.60
4749;DHT22;2388;53.582;9.962;2022-10-16T15:10:27;17.30;99.50
4749;DHT22;2388;53.582;9.962;2022-10-16T15:12:54;17.20;99.80
4749;DHT22;2388;53.582;9.962;2022-10-16T15:17:48;17.30;99.90
4749;DHT22;2388;53.582;9.962;2022-10-16T15:20:19;17.30;99.90
4749;DHT22;2388;53.582;9.962;2022-10-16T15:22:44;17.30;99.90
4749;DHT22;2388;53.582;9.962;2022-10-16T15:25:30;17.30;99.90
4749;DHT22;2388;53.582;9.962;2022-10-16T15:27:57;17.20;99.90
4749;DHT22;2388;53.582;9.962;2022-10-16T15:30:22;17.20;99.90
4749;DHT22;2388;53.582;9.962;2022-10-16T15:32:48;17.10;99.90
4749;DHT22;2388;53.582;9.962;2022-10-16T15:35:13;17.10;99.90
4749;DHT22;2388;53.582;9.962;2022-10-16T15:37:39;17.00;99.90
4749;DHT22;2388;53.582;9.962;2022-10-16T15:40:05;17.00;99.90
4749;DHT22;2388;53.582;9.962;2022-10-16T15:42:30;17.00;99.90
4749;DHT22;2388;53.582;9.962;2022-10-16T15:44:56;16.90;99.90
4749;DHT22;2388;53.582;9.962;2022-10-16T15:47:21;16.90;99.90
4749;DHT22;2388;53.582;9.962;2022-10-16T15:49:47;16.80;99.90
4749;DHT22;2388;53.582;9.962;2022-10-16T15:52:12;16.80;99.90
4749;DHT22;2388;53.582;9.962;2022-10-16T15:54:38;16.80;99.90
4749;DHT22;2388;53.582;9.962;2022-10-16T15:57:03;16.70;99.90
4749;DHT22;2388;53.582;9.962;2022-10-16T15:59:29;16.70;99.90
4749;DHT22;2388;53.582;9.962;2022-10-16T16:01:55;16.70;99.90
4749;DHT22;2388;53.582;9.962;2022-10-16T16:04:21;16.60;99.90
4749;DHT22;2388;53.582;9.962;2022-10-16T16:06:46;16.60;99.90
4749;DHT22;2388;53.582;9.962;2022-10-16T16:09:13;16.50;99.90
4749;DHT22;2388;53.582;9.962;2022-10-16T16:11:39;16.50;99.90
4749;DHT22;2388;53.582;9.962;2022-10-16T16:14:05;16.50;99.90
4749;DHT22;2388;53.582;9.962;2022-10-16T16:16:31;16.40;99.90
4749;DHT22;2388;53.582;9.962;2022-10-16T16:19:02;16.40;99.90
4749;DHT22;2388;53.582;9.962;2022-10-16T16:21:27;16.40;99.90
4749;DHT22;2388;53.582;9.962;2022-10-16T16:23:53;16.30;99.90
4749;DHT22;2388;53.582;9.962;2022-10-16T16:26:24;16.30;99.90
4749;DHT22;2388;53.582;9.962;2022-10-16T16:28:54;16.20;99.90
4749;DHT22;2388;53.582;9.962;2022-10-16T16:31:24;16.20;99.90
4749;DHT22;2388;53.582;9.962;2022-10-16T16:33:49;16.10;99.90
4749;DHT22;2388;53.582;9.962;2022-10-16T16:36:17;16.10;99.90
4749;DHT22;2388;53.582;9.962;2022-10-16T16:38:44;16.10;99.90
4749;DHT22;2388;53.582;9.962;2022-10-16T16:41:29;16.00;99.90
4749;DHT22;2388;53.582;9.962;2022-10-16T16:43:55;16.00;99.90
4749;DHT22;2388;53.582;9.962;2022-10-16T16:46:26;16.00;99.90
4749;DHT22;2388;53.582;9.962;2022-10-16T16:48:52;15.90;99.90
4749;DHT22;2388;53.582;9.962;2022-10-16T16:51:20;15.80;99.90
4749;DHT22;2388;53.582;9.962;2022-10-16T16:53:50;15.80;99.90
4749;DHT22;2388;53.582;9.962;2022-10-16T16:56:17;15.70;99.90
4749;DHT22;2388;53.582;9.962;2022-10-16T16:58:47;15.70;99.90
4749;DHT22;2388;53.582;9.962;2022-10-16T17:01:13;15.70;99.90
4749;DHT22;2388;53.582;9.962;2022-10-16T17:03:42;15.60;99.90
4749;DHT22;2388;53.582;9.962;2022-10-16T17:06:12;15.60;99.90
4749;DHT22;2388;53.582;9.962;2022-10-16T17:08:39;15.60;99.90
4749;DHT22;2388;53.582;9.962;2022-10-16T17:11:06;15.60;99.90
4749;DHT22;2388;53.582;9.962;2022-10-16T17:13:33;15.50;99.90
4749;DHT22;2388;53.582;9.962;2022-10-16T17:16:01;15.50;99.90
4749;DHT22;2388;53.582;9.962;2022-10-16T17:18:26;15.50;99.90
4749;DHT22;2388;53.582;9.962;2022-10-16T17:20:52;15.50;99.90
4749;DHT22;2388;53.582;9.962;2022-10-16T17:23:18;15.50;99.90
4749;DHT22;2388;53.582;9.962;2022-10-16T17:25:45;15.50;99.90
4749;DHT22;2388;53.582;9.962;2022-10-16T17:28:11;15.50;99.90
4749;DHT22;2388;53.582;9.962;2022-10-16T17:30:40;15.40;99.90
4749;DHT22;2388;53.582;9.962;2022-10-16T17:33:06;15.40;99.90
4749;DHT22;2388;53.582;9.962;2022-10-16T17:35:40;15.40;99.90
4749;DHT22;2388;53.582;9.962;2022-10-16T17:38:06;15.40;99.90
4749;DHT22;2388;53.582;9.962;2022-10-16T17:40:31;15.40;99.90
4749;DHT22;2388;53.582;9.962;2022-10-16T17:42:57;15.30;99.90
4749;DHT22;2388;53.582;9.962;2022-10-16T17:45:23;15.30;99.90
4749;DHT22;2388;53.582;9.962;2022-10-16T17:47:48;15.30;99.90